createdAt,value
2023-02-23T00:02:08.523Z,99944.91
2023-02-23T00:04:37.244Z,99948.50
2023-02-23T00:07:06.451Z,99955.44
2023-02-23T00:09:36.751Z,99947.34
2023-02-23T00:12:09.530Z,99950.56
2023-02-23T00:14:38.260Z,99948.78
2023-02-23T00:17:14.386Z,99949.00
2023-02-23T00:19:43.592Z,99951.59
2023-02-23T00:22:11.949Z,99941.94
2023-02-23T00:24:40.546Z,99945.47
2023-02-23T00:27:07.787Z,99934.91
2023-02-23T00:29:39.577Z,99939.22
2023-02-23T00:32:07.360Z,99943.56
2023-02-23T00:34:37.090Z,99940.88
2023-02-23T00:37:05.144Z,99946.16
2023-02-23T00:39:32.464Z,99942.66
2023-02-23T00:42:03.689Z,99942.66
2023-02-23T00:44:33.784Z,99938.16
2023-02-23T00:47:04.164Z,99938.25
2023-02-23T00:49:32.701Z,99938.34
2023-02-23T00:51:59.808Z,99943.38
2023-02-23T00:54:26.880Z,99945.75
2023-02-23T00:56:54.022Z,99942.41
2023-02-23T00:59:23.432Z,99941.41
2023-02-23T01:01:51.203Z,99934.41
2023-02-23T01:04:23.079Z,99935.22
2023-02-23T01:06:50.254Z,99937.81
2023-02-23T01:09:28.003Z,99934.41
2023-02-23T01:11:57.198Z,99924.03
2023-02-23T01:14:25.026Z,99931.88
2023-02-23T01:16:52.355Z,99926.41
2023-02-23T01:19:20.608Z,99925.56
2023-02-23T01:21:49.657Z,99920.53
2023-02-23T01:24:18.306Z,99924.97
2023-02-23T01:26:46.184Z,99924.78
2023-02-23T01:29:17.878Z,99916.78
2023-02-23T01:31:51.182Z,99923.63
2023-02-23T01:34:21.648Z,99924.78
2023-02-23T01:36:50.372Z,99924.53
2023-02-23T01:39:20.044Z,99917.31
2023-02-23T01:41:48.375Z,99926.97
2023-02-23T01:44:15.509Z,99920.66
2023-02-23T01:46:46.293Z,99919.31
2023-02-23T01:49:20.500Z,99926.13
2023-02-23T01:51:57.438Z,99922.28
2023-02-23T01:54:36.375Z,99922.00
2023-02-23T01:57:06.000Z,99922.09
2023-02-23T01:59:45.856Z,99919.66
2023-02-23T02:02:16.849Z,99922.34
2023-02-23T02:04:44.986Z,99919.66
2023-02-23T02:07:29.223Z,99916.28
2023-02-23T02:10:10.769Z,99918.13
2023-02-23T02:12:44.176Z,99916.34
2023-02-23T02:15:19.353Z,99911.22
2023-02-23T02:18:18.453Z,99909.22
2023-02-23T02:21:46.922Z,99912.22
2023-02-23T02:24:55.817Z,99910.69
2023-02-23T02:28:04.287Z,99908.72
2023-02-23T02:31:30.101Z,99906.91
2023-02-23T02:34:28.185Z,99894.53
2023-02-23T02:37:35.227Z,99891.09
2023-02-23T02:40:37.888Z,99892.72
2023-02-23T02:43:42.867Z,99888.31
2023-02-23T02:46:36.180Z,99893.25
2023-02-23T02:49:27.801Z,99889.50
2023-02-23T02:52:21.346Z,99891.28
2023-02-23T02:55:09.351Z,99885.50
2023-02-23T02:57:37.864Z,99890.81
2023-02-23T03:00:24.988Z,99889.66
2023-02-23T03:03:11.191Z,99886.06
2023-02-23T03:06:08.417Z,99880.84
2023-02-23T03:09:15.988Z,99884.44
2023-02-23T03:12:42.056Z,99879.06
2023-02-23T03:15:55.106Z,99879.06
2023-02-23T03:19:27.589Z,99878.25
2023-02-23T03:23:02.741Z,99875.38
2023-02-23T03:26:58.205Z,99878.06
2023-02-23T03:30:39.196Z,99876.47
2023-02-23T03:33:38.910Z,99878.25
2023-02-23T03:36:38.666Z,99876.09
2023-02-23T03:40:15.866Z,99878.63
2023-02-23T03:43:03.317Z,99884.72
2023-02-23T03:45:49.915Z,99881.75
2023-02-23T03:48:38.482Z,99880.88
2023-02-23T03:51:27.607Z,99881.75
2023-02-23T03:54:38.631Z,99875.69
2023-02-23T03:57:29.650Z,99886.66
2023-02-23T04:00:41.718Z,99886.56
2023-02-23T04:03:31.517Z,99883.06
2023-02-23T04:06:17.718Z,99886.47
2023-02-23T04:09:04.704Z,99885.56
2023-02-23T04:12:06.635Z,99889.19
2023-02-23T04:15:21.187Z,99885.84
2023-02-23T04:17:48.595Z,99889.78
2023-02-23T04:20:16.369Z,99886.13
2023-02-23T04:22:43.669Z,99885.94
2023-02-23T04:25:11.872Z,99883.44
2023-02-23T04:27:39.291Z,99889.78
2023-02-23T04:30:07.847Z,99893.31
2023-02-23T04:32:35.135Z,99891.78
2023-02-23T04:35:02.557Z,99896.91
2023-02-23T04:37:29.830Z,99897.09
2023-02-23T04:39:56.988Z,99897.97
2023-02-23T04:42:24.299Z,99897.09
2023-02-23T04:44:51.499Z,99895.09
2023-02-23T04:47:18.740Z,99893.31
2023-02-23T04:49:46.290Z,99896.91
2023-02-23T04:52:13.646Z,99890.69
2023-02-23T04:54:41.824Z,99900.94
2023-02-23T04:57:09.767Z,99892.78
2023-02-23T04:59:37.670Z,99898.72
2023-02-23T05:02:05.053Z,99899.59
2023-02-23T05:04:35.195Z,99896.03
2023-02-23T05:07:03.721Z,99903.66
2023-02-23T05:09:31.820Z,99902.75
2023-02-23T05:11:59.487Z,99904.44
2023-02-23T05:14:27.088Z,99904.53
2023-02-23T05:16:54.507Z,99902.84
2023-02-23T05:19:21.906Z,99900.97
2023-02-23T05:21:50.476Z,99898.63
2023-02-23T05:24:18.783Z,99897.06
2023-02-23T05:26:46.288Z,99896.19
2023-02-23T05:29:13.468Z,99886.75
2023-02-23T05:31:43.939Z,99890.16
2023-02-23T05:34:11.612Z,99889.16
2023-02-23T05:36:39.087Z,99890.16
2023-02-23T05:39:06.451Z,99887.56
2023-02-23T05:41:33.708Z,99885.69
2023-02-23T05:44:01.110Z,99887.19
2023-02-23T05:46:30.016Z,99890.00
2023-02-23T05:49:01.121Z,99882.06
2023-02-23T05:51:32.903Z,99886.75
2023-02-23T05:54:00.970Z,99894.09
2023-02-23T05:56:29.322Z,99894.56
2023-02-23T05:58:58.607Z,99893.66
2023-02-23T06:01:27.297Z,99899.88
2023-02-23T06:03:55.590Z,99897.44
2023-02-23T06:06:24.073Z,99897.44
2023-02-23T06:08:53.373Z,99902.84
2023-02-23T06:11:21.429Z,99902.66
2023-02-23T06:13:49.613Z,99906.09
2023-02-23T06:16:16.977Z,99910.75
2023-02-23T06:18:44.583Z,99905.88
2023-02-23T06:21:12.202Z,99911.84
2023-02-23T06:23:39.623Z,99911.66
2023-02-23T06:26:08.256Z,99914.94
2023-02-23T06:28:35.444Z,99914.63
2023-02-23T06:31:02.863Z,99918.84
2023-02-23T06:33:30.300Z,99924.59
2023-02-23T06:35:57.606Z,99927.97
2023-02-23T06:38:24.902Z,99923.88
2023-02-23T06:40:52.227Z,99932.50
2023-02-23T06:43:19.913Z,99930.78
2023-02-23T06:45:47.910Z,99927.47
2023-02-23T06:48:16.242Z,99933.75
2023-02-23T06:50:43.620Z,99927.66
2023-02-23T06:53:10.960Z,99933.75
2023-02-23T06:55:38.217Z,99946.75
2023-02-23T06:58:07.074Z,99947.41
2023-02-23T07:00:34.342Z,99950.19
2023-02-23T07:03:02.606Z,99946.31
2023-02-23T07:05:29.881Z,99957.72
2023-02-23T07:07:59.896Z,99949.91
2023-02-23T07:10:27.107Z,99957.13
2023-02-23T07:12:54.657Z,99961.69
2023-02-23T07:15:21.990Z,99955.72
2023-02-23T07:17:49.317Z,99957.81
2023-02-23T07:20:17.116Z,99963.22
2023-02-23T07:22:45.553Z,99953.03
2023-02-23T07:25:13.073Z,99961.91
2023-02-23T07:27:42.230Z,99958.69
2023-02-23T07:30:11.070Z,99960.47
2023-02-23T07:32:38.483Z,99964.34
2023-02-23T07:35:07.011Z,99967.16
2023-02-23T07:37:34.273Z,99968.22
2023-02-23T07:40:02.967Z,99964.25
2023-02-23T07:42:30.319Z,99973.94
2023-02-23T07:44:57.643Z,99974.13
2023-02-23T07:47:30.929Z,99978.56
2023-02-23T07:50:08.017Z,99976.19
2023-02-23T07:52:40.380Z,99984.78
2023-02-23T07:55:10.084Z,99974.44
2023-02-23T07:57:40.748Z,99979.91
2023-02-23T08:00:09.734Z,99976.56
2023-02-23T08:02:43.560Z,99974.19
2023-02-23T08:05:11.623Z,99974.44
2023-02-23T08:07:38.825Z,99969.66
2023-02-23T08:10:07.344Z,99983.03
2023-02-23T08:12:34.791Z,99977.16
2023-02-23T08:15:02.746Z,99974.06
2023-02-23T08:17:30.680Z,99972.59
2023-02-23T08:19:58.039Z,99969.34
2023-02-23T08:22:25.351Z,99971.28
2023-02-23T08:24:52.656Z,99973.22
2023-02-23T08:27:20.446Z,99973.31
2023-02-23T08:29:47.883Z,99971.97
2023-02-23T08:32:15.266Z,99968.88
2023-02-23T08:34:44.189Z,99974.66
2023-02-23T08:37:11.596Z,99976.91
2023-02-23T08:39:38.954Z,99980.16
2023-02-23T08:42:06.524Z,99977.75
2023-02-23T08:44:33.686Z,99971.75
2023-02-23T08:47:01.193Z,99974.66
2023-02-23T08:49:28.357Z,99979.66
2023-02-23T08:51:55.518Z,99985.38
2023-02-23T08:54:22.801Z,99980.38
2023-02-23T08:56:50.046Z,99979.16
2023-02-23T08:59:17.483Z,99975.69
2023-02-23T09:01:44.845Z,99981.50
2023-02-23T09:04:12.108Z,99976.13
2023-02-23T09:06:40.913Z,99983.78
2023-02-23T09:09:08.128Z,99985.06
2023-02-23T09:11:35.381Z,99993.00
2023-02-23T09:14:02.727Z,99997.22
2023-02-23T09:16:29.980Z,99996.44
2023-02-23T09:18:59.698Z,99991.44
2023-02-23T09:21:29.806Z,99985.19
2023-02-23T09:23:58.531Z,99990.00
2023-02-23T09:26:28.441Z,99988.84
2023-02-23T09:28:58.679Z,99988.38
2023-02-23T09:31:26.447Z,99989.50
2023-02-23T09:33:55.148Z,99984.28
2023-02-23T09:36:26.376Z,99989.13
2023-02-23T09:38:57.169Z,99990.84
2023-02-23T09:41:53.978Z,99987.38
2023-02-23T09:45:04.271Z,99994.84
2023-02-23T09:48:13.115Z,99991.69
2023-02-23T09:50:48.162Z,99991.25
2023-02-23T09:53:40.842Z,99999.03
2023-02-23T09:56:38.369Z,99993.78
2023-02-23T09:59:13.471Z,99992.97
2023-02-23T10:01:46.265Z,99992.25
2023-02-23T10:04:44.055Z,99998.28
2023-02-23T10:07:51.943Z,99998.09
2023-02-23T10:10:50.514Z,99997.38
2023-02-23T10:13:40.038Z,99994.69
2023-02-23T10:16:38.894Z,99995.91
2023-02-23T10:19:38.057Z,99990.91
2023-02-23T10:22:09.362Z,99989.56
2023-02-23T10:24:52.145Z,99996.16
2023-02-23T10:27:25.044Z,99992.69
2023-02-23T10:29:56.378Z,99987.69
2023-02-23T10:33:04.448Z,99983.59
2023-02-23T10:35:32.162Z,99990.84
2023-02-23T10:38:01.818Z,99993.44
2023-02-23T10:40:33.393Z,99986.03
2023-02-23T10:43:05.135Z,99993.44
2023-02-23T10:45:44.148Z,99993.97
2023-02-23T10:48:44.327Z,99969.38
2023-02-23T10:51:30.223Z,99970.34
2023-02-23T10:54:01.174Z,99968.19
2023-02-23T10:56:34.295Z,99964.66
2023-02-23T10:59:02.305Z,99958.88
2023-02-23T11:02:00.789Z,99962.41
2023-02-23T11:04:35.062Z,99957.09
2023-02-23T11:07:29.594Z,99952.09
2023-02-23T11:10:00.055Z,99948.63
2023-02-23T11:12:43.373Z,99949.78
2023-02-23T11:15:46.372Z,99944.34
2023-02-23T11:18:23.568Z,99947.69
2023-02-23T11:20:52.229Z,99949.06
2023-02-23T11:23:30.855Z,99948.09
2023-02-23T11:26:23.075Z,99944.22
2023-02-23T11:28:56.829Z,99956.16
2023-02-23T11:31:34.571Z,99958.19
2023-02-23T11:34:06.479Z,99951.41
2023-02-23T11:36:37.126Z,99947.13
2023-02-23T11:39:23.579Z,99956.75
2023-02-23T11:42:15.317Z,99947.56
2023-02-23T11:44:42.805Z,99944.41
2023-02-23T11:47:23.019Z,99942.97
2023-02-23T11:49:51.275Z,99940.72
2023-02-23T11:52:24.362Z,99940.22
2023-02-23T11:55:05.038Z,99932.34
2023-02-23T11:57:35.609Z,99934.91
2023-02-23T12:00:20.613Z,99935.50
2023-02-23T12:03:18.376Z,99926.28
2023-02-23T12:05:54.245Z,99922.34
2023-02-23T12:08:49.928Z,99911.56
2023-02-23T12:11:24.915Z,99907.53
2023-02-23T12:14:37.584Z,99903.66
2023-02-23T12:17:28.157Z,99899.59
2023-02-23T12:20:21.483Z,99897.00
2023-02-23T12:23:07.824Z,99890.66
2023-02-23T12:26:01.655Z,99892.28
2023-02-23T12:28:39.108Z,99882.72
2023-02-23T12:31:44.230Z,99887.63
2023-02-23T12:34:40.225Z,99895.28
2023-02-23T12:37:31.828Z,99892.59
2023-02-23T12:40:21.667Z,99888.38
2023-02-23T12:43:13.459Z,99889.47
2023-02-23T12:46:14.862Z,99881.09
2023-02-23T12:49:16.948Z,99881.22
2023-02-23T12:52:20.247Z,99876.69
2023-02-23T12:54:50.736Z,99882.00
2023-02-23T12:57:48.978Z,99868.81
2023-02-23T13:00:35.362Z,99875.03
2023-02-23T13:03:38.148Z,99874.22
2023-02-23T13:06:52.891Z,99868.50
2023-02-23T13:09:45.716Z,99867.91
2023-02-23T13:13:05.435Z,99871.66
2023-02-23T13:16:17.048Z,99860.53
2023-02-23T13:19:15.374Z,99863.34
2023-02-23T13:21:55.156Z,99858.41
2023-02-23T13:24:36.772Z,99865.91
2023-02-23T13:27:35.906Z,99859.72
2023-02-23T13:30:05.124Z,99864.25
2023-02-23T13:32:34.203Z,99857.41
2023-02-23T13:35:19.028Z,99860.94
2023-02-23T13:38:19.635Z,99854.94
2023-02-23T13:41:27.324Z,99861.22
2023-02-23T13:44:28.766Z,99856.97
2023-02-23T13:47:42.529Z,99865.31
2023-02-23T13:50:47.577Z,99868.28
2023-02-23T13:53:44.380Z,99859.72
2023-02-23T13:56:21.615Z,99858.41
2023-02-23T13:59:00.553Z,99859.78
2023-02-23T14:01:33.110Z,99846.22
2023-02-23T14:04:12.834Z,99846.44
2023-02-23T14:06:53.805Z,99848.91
2023-02-23T14:09:36.679Z,99856.22
2023-02-23T14:13:03.085Z,99844.22
2023-02-23T14:15:37.684Z,99842.66
2023-02-23T14:18:25.151Z,99843.41
2023-02-23T14:21:13.873Z,99846.19
2023-02-23T14:24:27.555Z,99848.47
2023-02-23T14:27:41.512Z,99845.88
2023-02-23T14:30:17.155Z,99844.56
2023-02-23T14:32:49.548Z,99846.34
2023-02-23T14:35:36.513Z,99852.63
2023-02-23T14:38:24.835Z,99844.84
2023-02-23T14:40:54.626Z,99847.09
2023-02-23T14:43:41.933Z,99845.06
2023-02-23T14:46:24.288Z,99836.88
2023-02-23T14:49:11.642Z,99842.97
2023-02-23T14:51:47.018Z,99842.19
2023-02-23T14:54:40.316Z,99848.66
2023-02-23T14:57:24.448Z,99841.63
2023-02-23T15:00:27.473Z,99846.19
2023-02-23T15:03:11.936Z,99844.63
2023-02-23T15:06:00.565Z,99841.63
2023-02-23T15:08:31.329Z,99835.66
2023-02-23T15:11:13.681Z,99836.53
2023-02-23T15:13:50.377Z,99843.22
2023-02-23T15:16:35.234Z,99837.06
2023-02-23T15:19:05.366Z,99830.13
2023-02-23T15:21:35.738Z,99837.34
2023-02-23T15:24:21.257Z,99832.13
2023-02-23T15:26:49.057Z,99833.91
2023-02-23T15:29:21.914Z,99826.75
2023-02-23T15:31:54.138Z,99827.41
2023-02-23T15:34:30.568Z,99831.38
2023-02-23T15:37:11.416Z,99828.69
2023-02-23T15:39:53.314Z,99828.41
2023-02-23T15:42:36.473Z,99829.13
2023-02-23T15:45:20.029Z,99825.31
2023-02-23T15:47:47.529Z,99831.25
2023-02-23T15:50:36.355Z,99829.03
2023-02-23T15:53:19.619Z,99825.25
2023-02-23T15:55:48.529Z,99831.31
2023-02-23T15:58:30.099Z,99827.69
2023-02-23T16:01:26.067Z,99836.34
2023-02-23T16:04:16.947Z,99829.91
2023-02-23T16:07:17.902Z,99835.03
2023-02-23T16:10:27.080Z,99831.56
2023-02-23T16:12:54.785Z,99835.84
2023-02-23T16:15:33.758Z,99836.53
2023-02-23T16:18:11.865Z,99844.34
2023-02-23T16:20:55.954Z,99842.31
2023-02-23T16:23:34.019Z,99847.31
2023-02-23T16:26:15.566Z,99839.16
2023-02-23T16:28:46.133Z,99849.47
2023-02-23T16:31:22.917Z,99834.34
2023-02-23T16:33:58.636Z,99843.06
2023-02-23T16:36:40.150Z,99838.59
2023-02-23T16:39:12.985Z,99838.47
2023-02-23T16:41:40.350Z,99839.34
2023-02-23T16:44:15.956Z,99837.63
2023-02-23T16:47:04.194Z,99837.06
2023-02-23T16:49:31.568Z,99837.13
2023-02-23T16:51:59.935Z,99836.88
2023-02-23T16:54:27.867Z,99836.81
2023-02-23T16:56:55.993Z,99836.69
2023-02-23T16:59:24.117Z,99832.63
2023-02-23T17:01:51.347Z,99842.00
2023-02-23T17:04:21.813Z,99844.53
2023-02-23T17:06:55.584Z,99845.47
2023-02-23T17:09:24.205Z,99847.97
2023-02-23T17:11:51.573Z,99844.41
2023-02-23T17:14:28.234Z,99842.66
2023-02-23T17:16:57.825Z,99845.94
2023-02-23T17:19:26.149Z,99849.06
2023-02-23T17:21:53.499Z,99851.47
2023-02-23T17:24:25.931Z,99850.25
2023-02-23T17:26:54.214Z,99850.03
2023-02-23T17:29:21.370Z,99857.06
2023-02-23T17:31:49.539Z,99860.09
2023-02-23T17:34:17.020Z,99861.00
2023-02-23T17:36:44.187Z,99872.22
2023-02-23T17:39:14.056Z,99862.44
2023-02-23T17:41:41.522Z,99874.44
2023-02-23T17:44:09.451Z,99875.25
2023-02-23T17:46:36.976Z,99875.25
2023-02-23T17:49:04.616Z,99882.13
2023-02-23T17:51:31.792Z,99876.75
2023-02-23T17:53:59.020Z,99887.09
2023-02-23T17:56:26.245Z,99891.53
2023-02-23T17:58:53.565Z,99899.38
2023-02-23T18:01:21.203Z,99898.41
2023-02-23T18:03:49.866Z,99900.88
2023-02-23T18:06:17.022Z,99907.75
2023-02-23T18:08:45.289Z,99913.00
2023-02-23T18:11:12.794Z,99911.22
2023-02-23T18:13:40.117Z,99916.38
2023-02-23T18:16:11.081Z,99918.09
2023-02-23T18:18:42.743Z,99919.75
2023-02-23T18:21:15.526Z,99917.00
2023-02-23T18:23:43.648Z,99909.00
2023-02-23T18:26:18.558Z,99914.91
2023-02-23T18:28:46.643Z,99913.94
2023-02-23T18:31:19.438Z,99912.88
2023-02-23T18:33:49.915Z,99905.78
2023-02-23T18:36:29.070Z,99924.13
2023-02-23T18:39:01.090Z,99915.28
2023-02-23T18:41:30.825Z,99917.72
2023-02-23T18:44:05.300Z,99918.66
2023-02-23T18:46:32.964Z,99921.09
2023-02-23T18:49:00.537Z,99930.50
2023-02-23T18:51:28.205Z,99926.78
2023-02-23T18:53:56.064Z,99930.22
2023-02-23T18:56:28.090Z,99929.25
2023-02-23T18:59:01.652Z,99923.13
2023-02-23T19:01:37.557Z,99929.13
2023-02-23T19:04:08.599Z,99931.72
2023-02-23T19:06:39.063Z,99931.66
2023-02-23T19:09:10.326Z,99931.56
2023-02-23T19:11:38.213Z,99941.22
2023-02-23T19:14:18.200Z,99941.13
2023-02-23T19:16:46.809Z,99949.75
2023-02-23T19:19:14.779Z,99950.69
2023-02-23T19:21:42.377Z,99942.75
2023-02-23T19:24:09.743Z,99940.06
2023-02-23T19:26:38.619Z,99940.16
2023-02-23T19:29:06.789Z,99940.91
2023-02-23T19:31:34.837Z,99945.06
2023-02-23T19:34:04.847Z,99947.69
2023-02-23T19:36:33.859Z,99950.38
2023-02-23T19:39:10.201Z,99944.19
2023-02-23T19:41:39.972Z,99951.28
2023-02-23T19:44:08.126Z,99948.69
2023-02-23T19:46:36.780Z,99957.44
2023-02-23T19:49:05.939Z,99958.31
2023-02-23T19:51:33.248Z,99966.06
2023-02-23T19:54:00.776Z,99966.16
2023-02-23T19:56:29.142Z,99963.31
2023-02-23T19:59:00.176Z,99964.00
2023-02-23T20:01:28.651Z,99960.63
2023-02-23T20:04:02.048Z,99965.69
2023-02-23T20:06:40.872Z,99961.28
2023-02-23T20:09:09.199Z,99954.28
2023-02-23T20:11:36.523Z,99953.38
2023-02-23T20:14:05.048Z,99960.22
2023-02-23T20:16:34.003Z,99959.28
2023-02-23T20:19:01.674Z,99960.00
2023-02-23T20:21:31.382Z,99965.97
2023-02-23T20:24:01.572Z,99965.16
2023-02-23T20:26:35.280Z,99973.84
2023-02-23T20:29:06.764Z,99970.28
2023-02-23T20:31:36.726Z,99966.84
2023-02-23T20:34:10.998Z,99970.06
2023-02-23T20:36:39.288Z,99967.91
2023-02-23T20:39:06.874Z,99975.81
2023-02-23T20:41:34.154Z,99973.50
2023-02-23T20:44:01.483Z,99974.84
2023-02-23T20:46:30.553Z,99971.16
2023-02-23T20:48:59.215Z,99975.91
2023-02-23T20:51:27.548Z,99973.53
2023-02-23T20:53:55.240Z,99975.03
2023-02-23T20:56:22.984Z,99979.38
2023-02-23T20:58:50.667Z,99981.16
2023-02-23T21:01:23.701Z,99987.13
2023-02-23T21:03:53.675Z,99993.03
2023-02-23T21:06:24.508Z,100000.66
2023-02-23T21:08:55.806Z,100006.59
2023-02-23T21:11:25.337Z,99998.69
2023-02-23T21:13:53.462Z,100000.41
2023-02-23T21:16:23.660Z,100010.47
2023-02-23T21:19:03.968Z,100007.84
2023-02-23T21:21:48.427Z,100014.91
2023-02-23T21:24:18.551Z,100012.13
2023-02-23T21:26:45.969Z,100002.69
2023-02-23T21:29:14.941Z,100002.88
2023-02-23T21:31:46.864Z,100004.75
2023-02-23T21:34:18.618Z,99994.94
2023-02-23T21:36:47.115Z,99990.63
2023-02-23T21:39:14.165Z,99993.00
2023-02-23T21:41:41.290Z,99994.63
2023-02-23T21:44:08.992Z,99981.47
2023-02-23T21:46:36.411Z,99982.53
2023-02-23T21:49:07.200Z,99984.00
2023-02-23T21:51:36.450Z,99983.69
2023-02-23T21:54:05.009Z,99979.94
2023-02-23T21:56:36.673Z,99985.72
2023-02-23T21:59:08.175Z,99983.19
2023-02-23T22:01:39.404Z,99982.56
2023-02-23T22:04:10.646Z,99977.97
2023-02-23T22:06:43.649Z,99971.19
2023-02-23T22:09:12.573Z,99977.59
2023-02-23T22:11:46.742Z,99978.47
2023-02-23T22:14:18.616Z,99982.47
2023-02-23T22:16:47.494Z,99972.91
2023-02-23T22:19:15.661Z,99975.19
2023-02-23T22:21:45.152Z,99981.09
2023-02-23T22:24:15.200Z,99984.59
2023-02-23T22:26:50.368Z,99988.09
2023-02-23T22:29:17.838Z,99982.88
2023-02-23T22:31:45.217Z,99976.94
2023-02-23T22:34:12.689Z,99976.19
2023-02-23T22:36:40.150Z,99969.19
2023-02-23T22:39:09.553Z,99978.63
2023-02-23T22:41:43.460Z,99977.81
2023-02-23T22:44:16.713Z,99982.25
2023-02-23T22:46:47.900Z,99967.03
2023-02-23T22:49:16.210Z,99976.53
2023-02-23T22:51:44.381Z,99978.81
2023-02-23T22:54:13.307Z,99975.94
2023-02-23T22:56:42.202Z,99970.06
2023-02-23T22:59:10.770Z,99971.75
2023-02-23T23:01:39.549Z,99967.03
2023-02-23T23:04:10.353Z,99966.88
2023-02-23T23:06:42.672Z,99957.41
2023-02-23T23:09:12.292Z,99961.41
2023-02-23T23:11:44.114Z,99964.50
2023-02-23T23:14:12.667Z,99964.34
2023-02-23T23:16:48.599Z,99967.81
2023-02-23T23:19:24.232Z,99969.56
2023-02-23T23:21:55.481Z,99968.88
2023-02-23T23:24:25.490Z,99966.00
2023-02-23T23:27:00.178Z,99961.50
2023-02-23T23:29:32.312Z,99963.06
2023-02-23T23:32:01.538Z,99958.47
2023-02-23T23:34:28.846Z,99953.81
2023-02-23T23:36:56.702Z,99960.28
2023-02-23T23:39:25.937Z,99953.84
2023-02-23T23:41:54.083Z,99964.69
2023-02-23T23:44:29.333Z,99955.16
2023-02-23T23:46:57.934Z,99961.13
2023-02-23T23:49:25.857Z,99958.69
2023-02-23T23:51:58.593Z,99951.91
2023-02-23T23:54:33.584Z,99957.13
2023-02-23T23:57:01.452Z,99948.66
2023-02-23T23:59:29.568Z,99951.03
